Time;durP1;ratioP1;P1;durP2;ratioP2;P2;SDS_P1;SDS_P2;PMS_P1;PMS_P2;Temp;Humidity;BMP_temperature;BMP_pressure;BME280_temperature;BME280_humidity;BME280_pressure;Samples;Min_cycle;Max_cycle;Signal;HPM_P1;HPM_P2
2022/04/29 00:00:51;;;;;;;13.98;3.10;;;;;;;7.95;65.43;101856.09;4993061;28;20057;-44
2022/04/29 00:03:18;;;;;;;9.50;2.38;;;;;;;7.96;64.62;101854.38;4997214;28;20048;-47
2022/04/29 00:05:46;;;;;;;8.70;3.05;;;;;;;7.97;65.12;101849.28;4995118;28;20049;-41
2022/04/29 00:08:14;;;;;;;7.82;2.95;;;;;;;7.97;64.86;101851.88;4995759;28;20129;-43
2022/04/29 00:10:42;;;;;;;6.43;3.05;;;;;;;7.96;65.48;101852.69;4990537;28;20190;-42
2022/04/29 00:13:11;;;;;;;7.60;2.50;;;;;;;7.96;65.41;101852.69;4994958;28;20116;-40
2022/04/29 00:15:38;;;;;;;12.10;3.45;;;;;;;7.93;64.69;101844.84;5002310;28;20096;-40
2022/04/29 00:18:05;;;;;;;11.10;3.08;;;;;;;7.93;65.32;101842.25;4993252;28;20456;-40
2022/04/29 00:20:32;;;;;;;7.38;2.78;;;;;;;7.93;64.58;101841.38;5001607;28;20108;-42
2022/04/29 00:22:59;;;;;;;10.15;2.95;;;;;;;7.89;64.96;101850.69;4997103;28;20053;-42
2022/04/29 00:25:26;;;;;;;8.90;3.03;;;;;;;7.91;64.77;101843.88;4997758;28;20140;-44
2022/04/29 00:27:53;;;;;;;6.53;3.25;;;;;;;7.90;65.91;101846.44;4985058;28;20050;-41
2022/04/29 00:30:19;;;;;;;13.27;2.72;;;;;;;7.90;64.42;101843.84;4993288;28;20050;-46
2022/04/29 00:32:46;;;;;;;11.35;2.95;;;;;;;7.89;64.35;101840.38;4997566;28;20525;-42
2022/04/29 00:35:12;;;;;;;11.80;2.25;;;;;;;7.90;64.99;101847.28;4992375;28;20054;-43
2022/04/29 00:37:45;;;;;;;13.68;3.05;;;;;;;7.91;64.70;101838.72;4994995;28;20841;-45
2022/04/29 00:40:15;;;;;;;9.40;3.03;;;;;;;7.90;64.49;101842.13;4988887;28;20424;-44
2022/04/29 00:42:41;;;;;;;;;;;;;;;7.77;65.81;101842.50;4990508;28;20510;-42
2022/04/29 00:45:08;;;;;;;18.00;3.17;;;;;;;7.86;64.55;101840.25;4996899;28;20457;-39
2022/04/29 00:47:35;;;;;;;8.85;3.22;;;;;;;7.86;65.27;101840.25;4995004;28;20120;-42
2022/04/29 00:50:02;;;;;;;9.20;2.88;;;;;;;7.87;65.32;101834.28;5001467;28;20053;-43
2022/04/29 00:52:31;;;;;;;13.65;2.97;;;;;;;7.84;66.03;101831.59;4986123;28;20058;-41
2022/04/29 00:55:01;;;;;;;9.88;3.25;;;;;;;7.84;65.55;101826.44;4994126;28;20046;-42
2022/04/29 00:57:45;;;;;;;8.57;2.50;;;;;;;7.79;66.34;101823.69;4993781;28;20041;-46
2022/04/29 01:00:15;;;;;;;8.13;2.45;;;;;;;7.81;65.97;101824.59;4997216;28;20057;-45
2022/04/29 01:02:46;;;;;;;14.52;3.85;;;;;;;7.81;65.63;101823.75;4994859;28;20061;-44
2022/04/29 01:05:16;;;;;;;10.20;3.58;;;;;;;7.81;65.53;101826.31;4992769;28;20042;-42
2022/04/29 01:07:44;;;;;;;8.32;2.65;;;;;;;7.79;66.08;101820.22;4994970;28;20046;-42
2022/04/29 01:10:13;;;;;;;8.23;3.00;;;;;;;7.81;66.11;101816.88;4994800;28;20053;-40
2022/04/29 01:12:43;;;;;;;7.68;3.08;;;;;;;7.80;66.39;101822.00;4996310;28;20049;-42
2022/04/29 01:15:13;;;;;;;9.20;2.70;;;;;;;7.78;65.31;101810.72;4991819;28;20046;-42
2022/04/29 01:17:43;;;;;;;10.50;2.97;;;;;;;7.80;65.18;101819.41;4987027;28;20053;-44
2022/04/29 01:20:13;;;;;;;5.82;3.17;;;;;;;7.81;65.10;101814.28;4996074;28;20281;-42
2022/04/29 01:22:39;;;;;;;;;;;;;;;7.70;66.15;101807.88;4998769;28;20045;-44
2022/04/29 01:25:07;;;;;;;8.52;4.15;;;;;;;7.78;65.20;101810.72;4988470;28;19976;-40
2022/04/29 01:27:33;;;;;;;7.30;3.03;;;;;;;7.80;65.64;101809.94;4990793;28;20058;-46
2022/04/29 01:30:06;;;;;;;6.88;2.80;;;;;;;7.80;66.05;101806.50;4992060;28;20049;-40
2022/04/29 01:32:35;;;;;;;6.82;2.83;;;;;;;7.82;65.42;101797.13;4988872;28;20054;-41
2022/04/29 01:35:03;;;;;;;9.77;2.92;;;;;;;7.81;66.46;101795.38;4994050;28;20054;-40
2022/04/29 01:37:30;;;;;;;11.77;3.58;;;;;;;7.81;65.02;101787.63;4996544;28;20092;-43
2022/04/29 01:39:57;;;;;;;7.32;2.63;;;;;;;7.81;66.28;101790.22;4991295;28;20050;-39
2022/04/29 01:42:24;;;;;;;8.27;3.80;;;;;;;7.81;64.73;101785.06;4986809;28;20100;-42
2022/04/29 01:44:53;;;;;;;9.27;2.75;;;;;;;7.81;65.77;101782.47;4996771;28;20050;-43
2022/04/29 01:47:20;;;;;;;9.13;3.53;;;;;;;7.79;66.42;101779.81;4993388;28;20100;-41
2022/04/29 01:49:48;;;;;;;7.10;2.38;;;;;;;7.79;64.79;101774.66;4989516;28;20105;-46
2022/04/29 01:52:14;;;;;;;5.82;3.40;;;;;;;7.81;65.88;101779.88;4992354;28;20602;-42
2022/04/29 01:54:41;;;;;;;7.60;3.08;;;;;;;7.81;66.63;101769.56;4994713;28;20050;-44
2022/04/29 01:57:08;;;;;;;9.00;3.10;;;;;;;7.80;66.04;101767.81;4993631;28;20092;-41
2022/04/29 01:59:36;;;;;;;5.15;2.40;;;;;;;7.79;66.45;101761.78;4996953;28;20041;-41
2022/04/29 02:02:06;;;;;;;9.43;3.25;;;;;;;7.75;66.45;101764.19;4993434;28;20133;-40
2022/04/29 02:04:34;;;;;;;8.60;2.88;;;;;;;7.71;65.84;101769.22;4994515;28;20054;-42
2022/04/29 02:07:03;;;;;;;8.77;3.00;;;;;;;7.70;65.75;101764.88;4991283;28;20054;-44
2022/04/29 02:09:30;;;;;;;10.00;2.97;;;;;;;7.70;65.97;101767.47;4993669;28;20055;-44
2022/04/29 02:12:04;;;;;;;8.43;3.50;;;;;;;7.70;65.91;101761.44;4991234;28;20457;-42
2022/04/29 02:14:32;;;;;;;9.13;2.45;;;;;;;7.70;66.78;101766.59;4988152;28;20074;-50
2022/04/29 02:17:01;;;;;;;7.53;3.25;;;;;;;7.69;65.90;101767.41;4994832;28;20105;-41
2022/04/29 02:19:28;;;;;;;10.05;2.80;;;;;;;7.67;65.24;101759.59;4988348;28;20058;-42
2022/04/29 02:21:56;;;;;;;10.57;3.70;;;;;;;7.67;65.95;101761.31;4989150;28;20065;-45
2022/04/29 02:24:23;;;;;;;10.15;3.05;;;;;;;7.65;66.74;101758.69;4991522;28;20113;-42
2022/04/29 02:26:50;;;;;;;9.07;2.60;;;;;;;7.64;66.80;101762.09;4990816;28;20046;-40
2022/04/29 02:29:16;;;;;;;8.02;3.05;;;;;;;7.62;67.14;101758.56;4993792;28;20054;-46
2022/04/29 02:31:43;;;;;;;10.93;2.88;;;;;;;7.62;65.59;101763.72;4993114;28;20104;-43
2022/04/29 02:34:10;;;;;;;12.43;3.33;;;;;;;7.60;66.53;101762.78;4987674;28;20050;-43
2022/04/29 02:36:36;;;;;;;10.50;3.47;;;;;;;7.60;67.15;101760.19;4997186;28;20101;-42
2022/04/29 02:39:03;;;;;;;7.15;2.70;;;;;;;7.60;65.73;101762.78;4998662;28;20116;-43
2022/04/29 02:41:30;;;;;;;10.48;3.00;;;;;;;7.62;67.05;101758.56;4994660;28;20144;-42
2022/04/29 02:43:56;;;;;;;7.75;2.67;;;;;;;7.62;67.24;101763.72;4989485;28;20110;-41
2022/04/29 02:46:23;;;;;;;7.03;2.88;;;;;;;7.63;66.42;101768.06;4989343;28;20501;-42
2022/04/29 02:48:49;;;;;;;12.90;3.17;;;;;;;7.62;67.00;101761.16;4992286;28;20068;-42
2022/04/29 02:51:16;;;;;;;10.73;2.92;;;;;;;7.62;66.56;101763.72;4993074;28;20046;-41
2022/04/29 02:53:43;;;;;;;6.90;3.30;;;;;;;7.59;66.63;101763.59;4990922;28;20050;-45
2022/04/29 02:56:10;;;;;;;9.63;3.05;;;;;;;7.57;66.58;101765.25;4993363;28;20109;-43
2022/04/29 02:58:37;;;;;;;11.75;3.10;;;;;;;7.55;67.22;101764.31;4995667;28;20749;-41
2022/04/29 03:01:04;;;;;;;7.38;3.17;;;;;;;7.55;67.54;101762.63;4993200;28;20097;-40
2022/04/29 03:03:31;;;;;;;12.63;3.13;;;;;;;7.53;66.25;101763.41;5007434;28;20123;-43
2022/04/29 03:05:57;;;;;;;13.35;3.58;;;;;;;7.54;65.79;101760.00;4986951;28;20054;-41
2022/04/29 03:08:24;;;;;;;8.07;3.13;;;;;;;7.53;66.47;101763.41;4999425;28;20041;-40
2022/04/29 03:11:08;;;;;;;7.35;3.47;;;;;;;7.50;66.59;101763.28;4994603;28;20140;-42
2022/04/29 03:13:35;;;;;;;8.55;2.22;;;;;;;7.50;67.00;101768.44;4997685;28;20583;-41
2022/04/29 03:16:02;;;;;;;7.13;2.70;;;;;;;7.51;67.55;101770.19;4993161;28;20062;-47
2022/04/29 03:18:28;;;;;;;11.70;3.83;;;;;;;7.48;66.44;101759.75;4991970;28;20133;-44
2022/04/29 03:20:56;;;;;;;11.00;2.92;;;;;;;7.46;67.03;101758.00;4999434;28;20050;-42
2022/04/29 03:23:25;;;;;;;7.72;2.83;;;;;;;7.46;66.28;101758.00;4994442;28;20072;-43
2022/04/29 03:25:52;;;;;;;10.18;3.25;;;;;;;7.43;67.66;101757.88;4993529;28;20058;-43
2022/04/29 03:28:18;;;;;;;10.30;3.05;;;;;;;7.45;67.02;101757.94;4992089;28;20074;-39
2022/04/29 03:30:45;;;;;;;10.88;3.30;;;;;;;7.44;66.23;101758.78;4994094;28;20096;-40
2022/04/29 03:33:12;;;;;;;8.38;2.67;;;;;;;7.42;66.57;101750.09;4997236;28;20124;-43
2022/04/29 03:35:42;;;;;;;10.00;3.25;;;;;;;7.43;66.87;101751.88;4998018;28;20556;-45
2022/04/29 03:41:03;;;;;;;9.13;2.88;;;;;;;7.45;66.47;101757.94;5156997;27;20389;-44
2022/04/29 03:43:30;;;;;;;10.52;2.67;;;;;;;7.45;66.85;101755.34;5100155;27;20048;-40
2022/04/29 03:45:56;;;;;;;12.32;2.85;;;;;;;7.45;66.94;101752.78;5097504;28;20125;-42
2022/04/29 03:48:23;;;;;;;6.97;2.72;;;;;;;7.44;66.77;101753.63;5096769;28;20455;-41
2022/04/29 03:50:50;;;;;;;7.95;2.53;;;;;;;7.43;66.36;101746.72;5101422;28;21160;-43
2022/04/29 03:53:16;;;;;;;9.30;2.83;;;;;;;7.44;66.25;101745.88;5099996;28;20040;-44
2022/04/29 03:55:43;;;;;;;8.93;3.05;;;;;;;7.40;66.48;101742.28;5096802;28;20448;-41
2022/04/29 03:58:27;;;;;;;8.13;2.63;;;;;;;7.39;67.88;101745.69;5097454;28;20164;-43
2022/04/29 04:00:54;;;;;;;7.38;2.13;;;;;;;7.40;67.06;101741.44;5095710;28;20093;-42
2022/04/29 04:03:21;;;;;;;7.45;2.50;;;;;;;7.39;67.14;101744.81;5103215;28;20044;-46
2022/04/29 04:08:35;;;;;;;7.13;2.28;;;;;;;7.40;66.99;101741.44;5084717;28;20555;-45
2022/04/29 04:11:02;;;;;;;6.57;2.15;;;;;;;7.39;67.58;101740.53;5103585;28;20515;-40
2022/04/29 04:13:28;;;;;;;7.57;2.78;;;;;;;7.37;66.19;101737.03;5096265;28;20089;-42
2022/04/29 04:15:55;;;;;;;7.40;2.42;;;;;;;7.39;67.71;101735.38;5094532;28;20047;-42
2022/04/29 04:18:21;;;;;;;9.15;2.70;;;;;;;7.40;67.31;101734.56;5095616;28;20043;-42
2022/04/29 04:20:48;;;;;;;6.85;2.75;;;;;;;7.39;66.54;101730.22;5097807;28;20132;-40
2022/04/29 04:23:15;;;;;;;7.35;2.72;;;;;;;7.35;66.49;101728.34;5092400;28;20040;-39
2022/04/29 04:25:42;;;;;;;9.82;2.60;;;;;;;7.35;67.64;101730.94;5077982;28;20044;-40
2022/04/29 04:28:13;;;;;;;9.52;2.90;;;;;;;7.34;66.71;101731.75;5075568;28;20060;-44
2022/04/29 04:30:40;;;;;;;11.05;2.80;;;;;;;7.35;67.39;101730.94;5081502;28;20059;-44
2022/04/29 04:33:07;;;;;;;7.80;2.40;;;;;;;7.37;67.95;101726.72;5079685;28;20101;-42
2022/04/29 04:35:33;;;;;;;7.32;2.65;;;;;;;7.39;66.23;101735.38;5074582;28;20056;-43
2022/04/29 04:38:00;;;;;;;6.00;2.15;;;;;;;7.35;66.87;101730.94;5078550;28;20040;-41
2022/04/29 04:40:26;;;;;;;6.97;2.40;;;;;;;7.36;67.37;101730.09;5078196;28;20086;-41
2022/04/29 04:42:53;;;;;;;6.18;2.45;;;;;;;7.36;67.92;101730.09;5063639;28;20044;-47
2022/04/29 04:45:21;;;;;;;8.57;2.97;;;;;;;7.35;66.93;101723.19;5080862;28;20044;-42
2022/04/29 04:47:47;;;;;;;8.50;2.53;;;;;;;7.36;67.81;101740.41;5080571;28;20048;-45
2022/04/29 04:50:14;;;;;;;11.23;2.67;;;;;;;7.37;67.46;101739.63;5079178;28;20102;-47
2022/04/29 04:52:43;;;;;;;8.15;2.60;;;;;;;7.36;66.85;101750.72;5062539;28;20052;-42
2022/04/29 04:55:10;;;;;;;8.13;2.85;;;;;;;7.36;67.62;101761.03;5068306;28;20048;-41
2022/04/29 04:57:37;;;;;;;5.68;2.17;;;;;;;7.36;67.37;101758.47;5068116;28;20102;-46
2022/04/29 05:00:04;;;;;;;8.38;2.72;;;;;;;7.37;66.37;101757.66;5067392;28;20052;-44
2022/04/29 05:02:31;;;;;;;7.47;2.22;;;;;;;7.38;67.78;101759.41;5069637;28;20090;-40
2022/04/29 05:04:58;;;;;;;7.80;2.17;;;;;;;7.39;66.19;101768.91;5068886;28;20502;-47
2022/04/29 05:07:25;;;;;;;8.15;2.95;;;;;;;7.37;67.75;101762.81;5061516;28;20450;-41
2022/04/29 05:09:52;;;;;;;5.75;2.13;;;;;;;7.37;67.05;101760.25;5067171;28;20053;-40
2022/04/29 05:12:19;;;;;;;9.02;2.33;;;;;;;7.36;66.46;101766.19;5065540;28;20044;-40
2022/04/29 05:14:46;;;;;;;6.75;2.20;;;;;;;7.38;67.52;101768.84;5061641;28;20049;-41
2022/04/29 05:17:12;;;;;;;9.98;2.30;;;;;;;7.35;65.96;101769.59;5042936;28;20111;-43
2022/04/29 05:19:39;;;;;;;5.22;2.22;;;;;;;7.35;66.55;101772.19;5046816;28;20045;-41
2022/04/29 05:22:06;;;;;;;7.38;2.75;;;;;;;7.34;66.67;101775.59;5044291;28;20050;-40
2022/04/29 05:24:34;;;;;;;5.97;2.60;;;;;;;7.31;66.43;101767.72;5040968;28;20045;-42
2022/04/29 05:27:00;;;;;;;6.47;2.80;;;;;;;7.30;66.58;101771.13;5047008;28;20112;-40
2022/04/29 05:29:27;;;;;;;5.97;2.38;;;;;;;7.29;66.99;101775.41;5044910;28;20045;-41
2022/04/29 05:31:54;;;;;;;10.27;2.28;;;;;;;7.29;66.66;101774.50;5045579;28;20056;-43
2022/04/29 05:34:20;;;;;;;11.95;2.63;;;;;;;7.29;66.42;101779.66;5056480;28;20083;-42
2022/04/29 05:36:47;;;;;;;10.10;2.67;;;;;;;7.30;67.05;101776.28;5068870;28;20726;-42
2022/04/29 05:44:48;;;;;;;6.72;2.20;;;;;;;7.29;67.84;101774.50;5034165;28;20106;-42
2022/04/29 05:47:15;;;;;;;5.65;2.10;;;;;;;7.31;67.24;101773.78;5068553;28;20052;-43
2022/04/29 05:49:42;;;;;;;4.68;2.65;;;;;;;7.32;66.80;101779.78;5045878;28;20534;-43
2022/04/29 05:52:09;;;;;;;7.82;2.45;;;;;;;7.35;66.34;101781.59;5063493;28;20055;-44
2022/04/29 05:54:36;;;;;;;8.35;2.25;;;;;;;7.36;66.56;101781.66;5063848;28;20057;-47
2022/04/29 05:57:09;;;;;;;7.97;2.22;;;;;;;7.37;67.33;101783.44;5065862;28;20135;-42
2022/04/29 05:59:36;;;;;;;9.48;1.90;;;;;;;7.38;66.22;101774.88;5061331;28;20044;-40
2022/04/29 06:02:03;;;;;;;7.50;3.10;;;;;;;7.39;67.42;101779.22;5061227;28;20114;-47
2022/04/29 06:04:30;;;;;;;11.30;2.70;;;;;;;7.38;67.27;101780.03;5062119;28;20049;-43
2022/04/29 06:06:57;;;;;;;8.02;2.28;;;;;;;7.37;66.21;101793.75;5059113;28;20053;-42
2022/04/29 06:09:25;;;;;;;6.80;2.50;;;;;;;7.38;66.27;101800.66;5062610;28;20040;-42
2022/04/29 06:11:52;;;;;;;8.93;2.45;;;;;;;7.39;67.61;101804.97;5062455;28;20052;-41
2022/04/29 06:14:26;;;;;;;6.95;2.55;;;;;;;7.43;67.03;101804.28;5065479;28;20041;-40
2022/04/29 06:16:52;;;;;;;12.93;2.25;;;;;;;7.45;67.60;101812.97;5063268;28;20106;-42
2022/04/29 06:19:19;;;;;;;6.80;2.40;;;;;;;7.46;67.79;101801.81;5061339;28;20044;-44
2022/04/29 06:21:46;;;;;;;6.05;2.05;;;;;;;7.46;67.55;101809.56;5060640;28;20048;-42
2022/04/29 06:24:12;;;;;;;6.53;2.10;;;;;;;7.51;66.21;101806.28;5064447;28;20044;-44
2022/04/29 06:26:39;;;;;;;7.68;1.90;;;;;;;7.51;66.29;101798.53;5062950;28;20412;-42
2022/04/29 06:29:05;;;;;;;8.82;2.22;;;;;;;7.51;66.85;101806.28;5047482;28;20107;-49
2022/04/29 06:31:32;;;;;;;7.97;2.22;;;;;;;7.55;67.45;101808.16;5041830;28;20119;-41
2022/04/29 06:33:59;;;;;;;8.80;2.60;;;;;;;7.55;67.44;101798.72;5040527;28;20147;-46
2022/04/29 06:36:26;;;;;;;4.80;2.47;;;;;;;7.58;66.67;101803.13;5049192;28;20373;-43
2022/04/29 06:38:52;;;;;;;7.28;2.33;;;;;;;7.59;66.41;101800.59;5060912;28;20110;-40
2022/04/29 06:41:19;;;;;;;6.60;2.58;;;;;;;7.60;67.39;101806.63;5045422;28;20110;-41
2022/04/29 06:43:45;;;;;;;8.18;2.28;;;;;;;7.61;67.01;101802.34;5060337;28;20098;-39
2022/04/29 06:46:13;;;;;;;5.68;2.33;;;;;;;7.62;67.02;101804.09;5062264;28;20056;-42
2022/04/29 06:48:40;;;;;;;7.25;2.13;;;;;;;7.62;66.73;101805.00;5066027;28;20048;-42
2022/04/29 06:51:06;;;;;;;5.38;2.55;;;;;;;7.60;65.95;101804.03;5063406;28;20048;-44
2022/04/29 06:53:40;;;;;;;6.93;2.70;;;;;;;7.67;66.74;101806.03;5057325;28;20063;-42
2022/04/29 06:56:09;;;;;;;5.00;2.33;;;;;;;7.70;66.09;101803.56;5063679;28;20067;-43
2022/04/29 06:58:36;;;;;;;4.40;1.85;;;;;;;7.75;66.41;101810.59;5066107;28;20055;-43
2022/04/29 07:01:03;;;;;;;5.25;1.77;;;;;;;7.77;66.42;101806.41;5060763;28;20044;-42
2022/04/29 07:03:30;;;;;;;6.25;2.13;;;;;;;7.83;66.39;101819.50;5049227;28;20143;-43
2022/04/29 07:05:59;;;;;;;6.30;2.83;;;;;;;7.85;66.79;101812.72;5042365;28;20091;-46
2022/04/29 07:08:26;;;;;;;5.38;1.83;;;;;;;7.88;65.95;101817.09;5061075;28;20055;-42
2022/04/29 07:10:52;;;;;;;4.10;1.77;;;;;;;7.89;66.24;101814.59;5041419;28;20098;-42
2022/04/29 07:13:19;;;;;;;5.03;2.22;;;;;;;7.95;65.97;101814.81;5072464;28;20048;-46
2022/04/29 07:15:48;;;;;;;7.40;2.35;;;;;;;8.01;66.10;101815.84;5082595;28;20044;-42
2022/04/29 07:18:16;;;;;;;8.80;2.30;;;;;;;8.09;66.35;101822.16;5080195;28;20249;-41
2022/04/29 07:20:43;;;;;;;4.10;2.13;;;;;;;8.17;65.03;101820.75;5061955;28;20543;-42
2022/04/29 07:23:10;;;;;;;5.88;1.95;;;;;;;8.26;64.93;101824.47;5061317;28;20048;-42
2022/04/29 07:25:37;;;;;;;4.22;2.17;;;;;;;8.35;64.84;101832.56;5081595;28;20052;-43
2022/04/29 07:28:04;;;;;;;7.90;1.85;;;;;;;8.38;65.20;101832.66;5078049;28;20465;-40
2022/04/29 07:30:31;;;;;;;6.13;2.00;;;;;;;8.44;64.04;101832.88;5078988;28;20044;-43
2022/04/29 07:32:58;;;;;;;6.38;2.00;;;;;;;8.47;63.97;101835.56;5076473;28;20048;-45
2022/04/29 07:43:44;;;;;;;9.55;1.80;;;;;;;8.66;63.60;101840.50;5073439;28;20101;-45
2022/04/29 07:46:11;;;;;;;6.70;1.70;;;;;;;8.72;63.49;101832.97;5086095;28;20560;-44
2022/04/29 07:48:38;;;;;;;4.25;2.10;;;;;;;8.79;62.51;101841.81;5073399;28;20048;-41
2022/04/29 07:51:06;;;;;;;5.13;2.22;;;;;;;8.87;63.18;101840.34;5078689;28;20505;-41
2022/04/29 07:53:34;;;;;;;6.03;2.00;;;;;;;8.94;62.88;101839.72;5076412;28;20517;-41
2022/04/29 07:56:01;;;;;;;5.30;1.33;;;;;;;9.02;61.77;101829.63;5077113;28;20097;-46
2022/04/29 07:58:28;;;;;;;5.10;1.80;;;;;;;9.08;61.73;101839.28;5078146;28;20036;-44
2022/04/29 08:00:57;;;;;;;8.18;1.85;;;;;;;9.14;62.27;101834.34;5082473;28;20134;-42
2022/04/29 08:03:42;;;;;;;4.72;1.55;;;;;;;9.16;61.64;101843.03;5077233;28;20098;-41
2022/04/29 08:06:09;;;;;;;3.92;2.13;;;;;;;9.19;61.31;101848.28;5074754;28;20062;-43
2022/04/29 08:08:37;;;;;;;4.50;1.85;;;;;;;9.25;61.24;101847.59;5081729;28;20052;-41
2022/04/29 08:11:04;;;;;;;6.07;3.13;;;;;;;9.32;61.68;101844.38;5079169;28;20678;-39
2022/04/29 08:13:31;;;;;;;8.43;1.60;;;;;;;9.42;61.75;101840.38;5084766;28;20044;-42
2022/04/29 08:16:18;;;;;;;3.50;1.45;;;;;;;9.44;60.71;101838.72;5067658;28;20463;-47
2022/04/29 08:18:46;;;;;;;4.82;1.50;;;;;;;9.51;60.38;101851.00;5082195;28;20052;-41
2022/04/29 08:21:13;;;;;;;4.75;1.50;;;;;;;9.61;60.08;101851.28;5079888;28;20040;-42
2022/04/29 08:23:40;;;;;;;3.80;1.67;;;;;;;9.64;59.45;101848.78;5073464;28;20121;-44
2022/04/29 08:26:07;;;;;;;5.25;1.48;;;;;;;9.71;59.44;101853.31;5082819;28;20068;-46
2022/04/29 08:28:34;;;;;;;8.30;1.95;;;;;;;9.80;59.23;101851.84;5084678;28;20063;-43
2022/04/29 08:31:00;;;;;;;7.22;1.90;;;;;;;9.88;59.15;101855.53;5081315;28;20044;-45
2022/04/29 08:33:28;;;;;;;3.15;1.35;;;;;;;9.97;58.65;101858.38;5080339;28;20048;-42
2022/04/29 08:35:54;;;;;;;4.70;1.67;;;;;;;10.09;58.13;101859.56;5084398;28;20044;-44
2022/04/29 08:38:21;;;;;;;4.10;1.55;;;;;;;10.14;57.69;101858.00;5091567;28;20044;-44
2022/04/29 08:40:48;;;;;;;5.15;1.88;;;;;;;10.15;58.08;101855.44;5082056;28;20052;-46
2022/04/29 08:43:15;;;;;;;5.47;1.50;;;;;;;10.22;57.86;101866.84;5078094;28;20078;-45
2022/04/29 08:45:42;;;;;;;7.40;1.83;;;;;;;10.26;57.81;101868.69;5088424;28;20151;-46
2022/04/29 08:48:09;;;;;;;8.02;1.83;;;;;;;10.32;57.59;101862.81;5084949;28;20074;-44
2022/04/29 08:50:36;;;;;;;6.35;2.22;;;;;;;10.38;57.59;101862.09;5079596;28;20052;-43
2022/04/29 08:53:03;;;;;;;5.38;2.00;;;;;;;10.43;56.86;101870.84;5071742;28;20085;-48
2022/04/29 09:01:08;;;;;;;4.78;1.98;;;;;;;10.44;56.31;101869.16;5059899;28;20047;-42
2022/04/29 09:03:36;;;;;;;4.97;1.90;;;;;;;10.50;56.14;101867.63;5081996;28;20052;-42
2022/04/29 09:06:05;;;;;;;6.88;2.00;;;;;;;10.59;56.30;101872.19;5067910;28;20495;-42
2022/04/29 09:08:39;;;;;;;5.68;1.85;;;;;;;10.67;56.07;101868.09;5088382;28;20083;-42
2022/04/29 09:11:07;;;;;;;5.68;2.30;;;;;;;10.82;55.46;101864.16;5072640;28;20063;-46
2022/04/29 09:13:37;;;;;;;7.78;2.03;;;;;;;11.04;55.56;101864.66;5082968;28;20502;-42
2022/04/29 09:16:07;;;;;;;6.20;2.67;;;;;;;11.11;54.04;101865.72;5084476;28;20052;-44
2022/04/29 09:21:12;;;;;;;6.35;2.63;;;;;;;11.28;54.10;101873.91;5048441;27;20394;-40
2022/04/29 09:23:43;;;;;;;7.97;2.83;;;;;;;11.34;54.01;101866.25;5006135;28;20108;-42
2022/04/29 09:26:24;;;;;;;3.45;2.22;;;;;;;11.43;53.98;101874.25;5004299;28;20054;-43
2022/04/29 09:28:54;;;;;;;9.05;2.47;;;;;;;11.46;52.76;101863.06;5004227;28;20271;-42
2022/04/29 09:31:21;;;;;;;6.97;2.25;;;;;;;11.45;53.24;101869.06;5003642;28;20061;-41
2022/04/29 09:34:08;;;;;;;7.65;2.35;;;;;;;11.46;52.77;101868.25;5002961;28;20065;-42
2022/04/29 09:36:35;;;;;;;6.47;2.60;;;;;;;11.56;52.06;101870.19;5002082;28;20042;-43
2022/04/29 09:41:54;;;;;;;;;;;;;;;11.60;50.19;101872.88;4991496;28;20081;-44
2022/04/29 09:44:37;;;;;;;9.32;2.80;;;;;;;11.50;48.75;101874.38;5005034;28;19925;-44
2022/04/29 09:47:21;;;;;;;9.30;3.60;;;;;;;11.43;48.84;101863.00;5003901;28;20054;-46
2022/04/29 09:52:30;;;;;;;7.53;4.78;;;;;;;11.25;49.73;101877.28;5011251;28;20411;-45
2022/04/29 09:57:48;;;;;;;7.78;4.03;;;;;;;11.12;49.96;101872.63;5031983;28;20430;-47
2022/04/29 10:00:15;;;;;;;8.10;3.95;;;;;;;11.23;49.26;101876.38;4989211;28;20043;-42
2022/04/29 10:02:42;;;;;;;9.07;3.53;;;;;;;11.60;47.79;101870.28;4993285;28;20105;-41
2022/04/29 10:05:09;;;;;;;5.90;3.03;;;;;;;11.85;48.66;101865.63;4990544;28;20550;-42
2022/04/29 10:07:40;;;;;;;11.65;3.28;;;;;;;12.02;47.80;101872.03;4991755;28;20109;-45
2022/04/29 10:10:09;;;;;;;8.02;3.15;;;;;;;12.07;46.30;101865.28;4994649;28;20054;-45
2022/04/29 10:12:36;;;;;;;6.85;3.10;;;;;;;12.11;47.63;101865.31;4985288;28;20133;-44
2022/04/29 10:15:06;;;;;;;7.68;2.55;;;;;;;12.36;46.80;101863.22;4997160;28;20096;-44
2022/04/29 10:23:11;;;;;;;6.53;2.83;;;;;;;12.83;44.08;101865.78;4992510;28;20054;-42
2022/04/29 10:25:43;;;;;;;4.60;2.53;;;;;;;12.69;44.44;101862.94;4992693;28;20047;-43
2022/04/29 10:28:14;;;;;;;3.25;1.83;;;;;;;12.59;45.10;101872.31;4993856;28;20047;-45
2022/04/29 10:30:41;;;;;;;7.40;3.15;;;;;;;12.56;46.00;101877.44;4982924;28;20553;-45
2022/04/29 10:33:10;;;;;;;4.13;1.92;;;;;;;12.45;44.38;101868.56;4987978;28;20050;-45
2022/04/29 10:38:35;;;;;;;6.30;1.90;;;;;;;12.33;44.60;101862.28;5065331;28;20384;-42
2022/04/29 10:46:49;;;;;;;6.53;2.58;;;;;;;12.27;44.73;101861.31;5118581;27;20924;-41
2022/04/29 10:49:31;;;;;;;4.45;2.42;;;;;;;12.24;45.08;101862.13;5114569;27;20052;-45
2022/04/29 10:52:00;;;;;;;5.25;2.08;;;;;;;12.26;45.84;101860.41;5113664;27;20487;-43
2022/04/29 10:57:37;;;;;;;3.40;2.15;;;;;;;12.33;45.56;101864.03;5048703;27;20417;-47
2022/04/29 11:00:10;;;;;;;2.55;1.38;;;;;;;12.26;44.40;101862.16;5023942;28;20067;-41
2022/04/29 11:02:40;;;;;;;3.20;1.60;;;;;;;12.31;46.64;101861.41;5024251;28;20054;-45
2022/04/29 11:05:08;;;;;;;3.05;1.50;;;;;;;12.51;45.44;101866.09;5022621;28;20050;-43
2022/04/29 11:12:57;;;;;;;4.55;2.30;;;;;;;12.71;45.73;101865.56;5028577;28;20404;-43
2022/04/29 11:15:40;;;;;;;5.80;2.00;;;;;;;12.78;45.78;101861.34;5000168;28;20090;-44
2022/04/29 11:18:23;;;;;;;5.35;2.00;;;;;;;12.77;44.87;101849.22;5000706;28;20046;-43
2022/04/29 11:20:59;;;;;;;5.75;2.08;;;;;;;12.87;44.94;101829.44;4984002;28;20545;-40
2022/04/29 11:26:17;;;;;;;7.40;2.58;;;;;;;13.36;44.98;101835.41;5001218;28;20384;-46
2022/04/29 11:28:44;;;;;;;3.78;2.40;;;;;;;13.58;45.26;101838.31;5004817;28;20050;-45
2022/04/29 11:31:11;;;;;;;3.10;1.70;;;;;;;13.62;44.70;101834.91;4999978;28;20552;-41
2022/04/29 11:33:39;;;;;;;2.65;1.92;;;;;;;13.45;43.63;101831.19;4985517;28;20084;-43
2022/04/29 11:36:09;;;;;;;5.93;2.13;;;;;;;13.39;44.10;101828.47;5003559;28;20046;-41
2022/04/29 11:38:45;;;;;;;3.22;1.63;;;;;;;13.41;43.13;101826.78;5018352;28;20562;-45
2022/04/29 11:41:17;;;;;;;2.90;1.58;;;;;;;13.36;43.31;101825.00;5004280;28;20050;-44
2022/04/29 11:43:46;;;;;;;5.05;2.40;;;;;;;13.35;44.25;101818.00;5002161;28;20084;-44
2022/04/29 11:46:13;;;;;;;4.00;1.92;;;;;;;13.36;43.81;101825.00;5000335;28;20049;-42
2022/04/29 11:48:51;;;;;;;3.22;1.73;;;;;;;13.23;43.62;101830.84;4998327;28;20058;-44
2022/04/29 11:51:18;;;;;;;5.32;2.15;;;;;;;13.15;43.43;101822.06;5011489;28;20042;-42
2022/04/29 11:53:53;;;;;;;7.30;2.20;;;;;;;13.23;44.04;101830.84;5003756;28;20062;-46
2022/04/29 11:56:20;;;;;;;5.00;2.78;;;;;;;13.35;45.14;101825.81;5001396;28;20054;-42
2022/04/29 11:58:47;;;;;;;5.85;1.95;;;;;;;13.41;45.27;101826.78;5000809;28;20054;-45
2022/04/29 12:01:19;;;;;;;4.63;2.90;;;;;;;13.42;45.31;101833.72;4993102;28;20056;-42
2022/04/29 12:03:47;;;;;;;5.07;2.80;;;;;;;13.39;44.60;101824.16;4985907;28;20046;-44
2022/04/29 12:06:16;;;;;;;4.80;2.55;;;;;;;13.32;45.50;101825.81;4994774;28;20506;-43
2022/04/29 12:08:44;;;;;;;7.82;2.97;;;;;;;13.37;45.53;101828.44;4999623;28;20054;-42
2022/04/29 12:11:10;;;;;;;5.20;2.30;;;;;;;13.46;45.63;101835.50;5020016;28;20053;-42
2022/04/29 12:13:37;;;;;;;5.80;2.72;;;;;;;13.46;45.47;101832.91;4998616;28;20059;-39
2022/04/29 12:16:05;;;;;;;5.22;2.38;;;;;;;13.32;45.07;101828.41;5002697;28;20056;-41
2022/04/29 12:18:49;;;;;;;4.53;2.78;;;;;;;13.19;43.91;101823.84;4999126;28;20046;-41
2022/04/29 12:21:25;;;;;;;6.15;2.20;;;;;;;13.22;44.48;101821.31;5013327;28;20038;-44
2022/04/29 12:23:52;;;;;;;6.22;2.60;;;;;;;13.22;44.17;101822.19;4985981;28;20101;-43
2022/04/29 12:26:19;;;;;;;4.70;2.58;;;;;;;13.40;45.12;101820.69;4990182;28;20042;-41
2022/04/29 12:28:55;;;;;;;5.03;2.35;;;;;;;13.46;44.06;101819.91;4992444;28;20054;-46
2022/04/29 12:37:06;;;;;;;6.20;2.30;;;;;;;13.77;45.30;101820.34;4986234;28;20101;-43
2022/04/29 12:39:37;;;;;;;6.72;2.70;;;;;;;13.78;43.75;101816.88;4981364;28;20104;-43
2022/04/29 12:42:08;;;;;;;5.85;2.85;;;;;;;13.81;44.46;101816.91;4987060;28;20502;-42
2022/04/29 12:47:26;;;;;;;4.68;3.10;;;;;;;13.96;42.73;101820.56;5057298;28;20389;-45